Time;durP1;ratioP1;P1;durP2;ratioP2;P2;SDS_P1;SDS_P2;PMS_P1;PMS_P2;Temp;Humidity;BMP_temperature;BMP_pressure;BME280_temperature;BME280_humidity;BME280_pressure;Samples;Min_cycle;Max_cycle;Signal;HPM_P1;HPM_P2
2021/03/11 00:00:23;;;;;;;29.07;21.20;;;5.80;99.90;;;;;;6406471;22;20449;-93
2021/03/11 00:02:53;;;;;;;26.57;19.90;;;5.80;99.90;;;;;;6405486;22;20448;-93
2021/03/11 00:05:22;;;;;;;31.40;22.30;;;5.90;99.90;;;;;;6404882;22;20935;-93
2021/03/11 00:07:53;;;;;;;28.70;20.70;;;5.80;99.90;;;;;;6406245;22;20512;-93
2021/03/11 00:10:25;;;;;;;31.07;20.50;;;5.90;99.90;;;;;;6407945;22;20520;-92
2021/03/11 00:12:54;;;;;;;31.90;21.23;;;5.90;99.90;;;;;;6379795;22;20409;-93
2021/03/11 00:15:23;;;;;;;27.80;19.67;;;5.90;99.90;;;;;;6408431;22;20422;-93
2021/03/11 00:17:50;;;;;;;30.93;21.93;;;5.90;99.90;;;;;;6407126;22;20445;-93
2021/03/11 00:20:19;;;;;;;28.07;20.90;;;5.90;99.90;;;;;;6408560;22;20428;-93
2021/03/11 00:22:46;;;;;;;30.53;20.60;;;5.90;99.90;;;;;;6408207;22;20445;-92
2021/03/11 00:25:18;;;;;;;26.13;18.77;;;5.90;99.90;;;;;;6408249;22;20448;-92
2021/03/11 00:27:48;;;;;;;24.30;17.33;;;5.90;66.80;;;;;;6407188;22;20425;-92
2021/03/11 00:30:17;;;;;;;30.93;21.10;;;6.00;10.90;;;;;;6407671;22;20421;-93
2021/03/11 00:32:43;;;;;;;28.00;21.00;;;5.90;1.00;;;;;;6407464;22;20524;-92
2021/03/11 00:35:11;;;;;;;26.50;19.17;;;5.90;1.00;;;;;;6407477;22;20421;-93
2021/03/11 00:37:39;;;;;;;26.70;19.53;;;6.00;1.00;;;;;;6407432;22;20843;-93
2021/03/11 00:40:09;;;;;;;27.97;20.40;;;6.00;1.00;;;;;;6408023;22;20798;-92
2021/03/11 00:42:36;;;;;;;23.93;15.53;;;6.00;1.00;;;;;;6379432;22;20439;-92
2021/03/11 00:45:06;;;;;;;27.17;20.33;;;6.00;1.00;;;;;;6407428;22;20432;-93
2021/03/11 00:47:37;;;;;;;24.07;18.77;;;6.00;1.00;;;;;;6378723;22;20418;-92
2021/03/11 00:50:04;;;;;;;24.17;19.77;;;6.00;1.00;;;;;;6408068;22;20508;-92
2021/03/11 00:52:31;;;;;;;26.67;19.97;;;6.00;1.00;;;;;;6407495;22;20417;-92
2021/03/11 00:54:58;;;;;;;24.93;18.97;;;6.00;26.30;;;;;;6407550;22;20421;-92
2021/03/11 00:57:25;;;;;;;32.00;20.50;;;6.00;44.10;;;;;;6406998;22;20441;-93
2021/03/11 00:59:52;;;;;;;28.77;20.73;;;6.00;99.90;;;;;;6407497;22;20520;-92
2021/03/11 01:02:20;;;;;;;23.93;18.37;;;6.00;99.90;;;;;;6407039;22;20493;-92
2021/03/11 01:04:47;;;;;;;28.77;20.00;;;6.00;99.90;;;;;;6407235;22;20421;-93
2021/03/11 01:07:16;;;;;;;26.33;20.17;;;6.00;99.90;;;;;;6407072;22;20402;-93
2021/03/11 01:09:45;;;;;;;26.70;19.30;;;6.00;99.90;;;;;;6378953;22;20427;-93
2021/03/11 01:12:14;;;;;;;24.87;17.20;;;5.90;99.90;;;;;;6407791;22;20441;-92
2021/03/11 01:14:41;;;;;;;31.60;20.67;;;5.90;99.90;;;;;;6407265;22;20398;-93
2021/03/11 01:17:09;;;;;;;29.03;19.03;;;5.90;99.90;;;;;;6407779;22;20445;-92
2021/03/11 01:19:38;;;;;;;29.20;20.70;;;5.80;99.90;;;;;;6406822;22;20497;-93
2021/03/11 01:22:05;;;;;;;32.10;21.63;;;5.80;99.90;;;;;;6378883;22;20452;-93
2021/03/11 01:24:36;;;;;;;25.93;19.53;;;5.80;99.90;;;;;;6407791;22;20425;-92
2021/03/11 01:27:03;;;;;;;28.80;19.80;;;5.80;99.90;;;;;;6407561;22;20402;-93
2021/03/11 01:29:33;;;;;;;28.43;20.40;;;5.70;99.90;;;;;;6407119;22;20421;-93
2021/03/11 01:32:01;;;;;;;34.17;22.80;;;5.80;99.90;;;;;;6407522;22;20482;-93
2021/03/11 01:34:36;;;;;;;28.90;20.93;;;5.70;99.90;;;;;;6407088;22;20457;-93
2021/03/11 01:37:05;;;;;;;32.50;22.07;;;5.70;99.90;;;;;;6407337;22;20405;-93
2021/03/11 01:39:38;;;;;;;29.93;19.70;;;5.70;99.90;;;;;;6407783;22;20466;-93
2021/03/11 01:42:11;;;;;;;32.77;21.93;;;5.70;99.90;;;;;;6407461;22;20540;-93
2021/03/11 01:44:43;;;;;;;29.90;20.77;;;5.70;99.90;;;;;;6408159;22;20520;-93
2021/03/11 01:47:15;;;;;;;31.80;20.70;;;5.80;99.90;;;;;;6407063;22;20869;-93
2021/03/11 01:55:18;;;;;;;24.57;17.83;;;5.80;99.90;;;;;;6406445;22;20843;-93
2021/03/11 01:57:47;;;;;;;30.80;21.23;;;5.80;99.90;;;;;;6378759;22;20444;-93
2021/03/11 02:00:22;;;;;;;28.40;19.37;;;5.80;99.90;;;;;;6378778;22;20428;-93
2021/03/11 02:02:51;;;;;;;29.17;20.10;;;5.80;99.90;;;;;;6378905;22;20746;-93
2021/03/11 02:05:21;;;;;;;29.87;20.87;;;5.80;99.90;;;;;;6406111;22;20516;-93
2021/03/11 02:07:55;;;;;;;27.83;20.07;;;5.80;99.90;;;;;;6406613;22;20411;-93
2021/03/11 02:10:26;;;;;;;27.30;18.73;;;5.90;99.90;;;;;;6406284;22;20424;-93
2021/03/11 02:13:16;;;;;;;31.40;20.23;;;5.90;99.90;;;;;;6406556;22;20464;-93
2021/03/11 02:15:49;;;;;;;27.60;19.17;;;5.90;99.90;;;;;;6407218;22;20436;-93
2021/03/11 02:18:23;;;;;;;27.30;19.00;;;5.90;99.90;;;;;;6406060;22;20733;-93
2021/03/11 02:24:35;;;;;;;30.43;21.10;;;6.00;99.90;;;;;;6363328;22;20489;-93
2021/03/11 02:27:22;;;;;;;22.53;16.57;;;6.00;99.90;;;;;;6378039;22;20421;-92
2021/03/11 02:29:53;;;;;;;25.37;17.23;;;6.10;99.90;;;;;;6405862;22;20805;-92
2021/03/11 02:32:23;;;;;;;23.70;17.67;;;6.00;99.90;;;;;;6406448;22;20437;-93
2021/03/11 02:34:53;;;;;;;23.13;17.20;;;6.10;99.90;;;;;;6406204;22;20426;-93
2021/03/11 02:37:26;;;;;;;21.00;15.30;;;6.10;99.90;;;;;;6378994;22;20428;-93
2021/03/11 02:39:57;;;;;;;20.87;14.80;;;6.10;99.90;;;;;;6406294;22;20432;-93
2021/03/11 02:42:26;;;;;;;21.30;15.20;;;6.10;99.90;;;;;;6405711;22;20445;-94
2021/03/11 02:44:54;;;;;;;22.93;15.90;;;6.20;99.90;;;;;;6405444;22;20422;-93
2021/03/11 02:47:23;;;;;;;18.87;12.90;;;6.20;99.90;;;;;;6405450;22;20742;-93
2021/03/11 02:49:51;;;;;;;21.70;12.80;;;6.30;99.90;;;;;;6406388;22;20457;-92
2021/03/11 02:52:30;;;;;;;20.40;14.17;;;6.30;99.90;;;;;;6405695;22;20735;-92
2021/03/11 02:54:59;;;;;;;18.27;13.23;;;6.30;99.90;;;;;;6406142;22;20402;-93
2021/03/11 02:57:28;;;;;;;17.43;12.33;;;6.30;99.90;;;;;;6406266;22;20425;-93
2021/03/11 03:00:00;;;;;;;14.93;11.23;;;6.30;99.90;;;;;;6405761;22;20958;-93
2021/03/11 03:02:28;;;;;;;13.37;10.90;;;6.40;99.90;;;;;;6406255;22;20449;-92
2021/03/11 03:04:58;;;;;;;14.20;10.27;;;6.50;99.90;;;;;;6405058;22;20409;-93
2021/03/11 03:07:27;;;;;;;13.63;11.10;;;6.50;99.90;;;;;;6405827;22;20422;-93
2021/03/11 03:09:59;;;;;;;12.83;9.40;;;6.50;99.90;;;;;;6377225;22;20420;-93
2021/03/11 03:12:27;;;;;;;9.73;8.13;;;6.60;99.90;;;;;;6378400;22;20420;-92
2021/03/11 03:14:58;;;;;;;13.00;8.83;;;6.60;94.00;;;;;;6406389;22;20400;-93
2021/03/11 03:17:28;;;;;;;9.53;8.50;;;6.70;18.80;;;;;;6405421;22;20400;-92
2021/03/11 03:20:02;;;;;;;8.67;6.87;;;6.70;1.00;;;;;;6405570;22;20761;-93
2021/03/11 03:22:29;;;;;;;9.80;7.60;;;6.80;1.00;;;;;;6405013;22;20445;-92
2021/03/11 03:24:57;;;;;;;9.63;6.30;;;6.80;1.00;;;;;;6406008;22;20428;-93
2021/03/11 03:27:30;;;;;;;7.70;6.53;;;6.90;1.00;;;;;;6377645;22;20521;-93
2021/03/11 03:29:59;;;;;;;8.87;6.73;;;6.90;1.00;;;;;;6378104;22;20781;-93
2021/03/11 03:32:27;;;;;;;7.00;6.30;;;6.90;1.00;;;;;;6405946;22;20508;-93
2021/03/11 03:34:54;;;;;;;7.53;6.53;;;6.90;99.90;;;;;;6378321;22;20422;-93
2021/03/11 03:37:21;;;;;;;7.90;5.63;;;6.90;99.90;;;;;;6377190;22;20417;-92
2021/03/11 03:39:48;;;;;;;7.60;6.73;;;7.00;1.00;;;;;;6405565;22;20589;-92
2021/03/11 03:42:18;;;;;;;6.37;5.73;;;6.90;1.00;;;;;;6406090;22;20469;-92
2021/03/11 03:44:46;;;;;;;7.97;6.30;;;6.90;69.80;;;;;;6405794;22;20505;-92
2021/03/11 03:47:16;;;;;;;7.33;6.60;;;6.90;99.90;;;;;;6405952;22;20530;-93
2021/03/11 03:49:43;;;;;;;7.23;6.00;;;6.80;99.90;;;;;;6405562;22;20888;-93
2021/03/11 03:52:12;;;;;;;7.73;6.60;;;6.80;99.90;;;;;;6406304;22;20428;-93
2021/03/11 03:54:46;;;;;;;8.47;6.63;;;6.70;99.90;;;;;;6406560;22;20426;-92
2021/03/11 03:59:59;;;;;;;10.47;6.90;;;6.60;99.90;;;;;;6403153;22;20486;-93
2021/03/11 04:05:40;;;;;;;8.93;8.03;;;6.60;99.90;;;;;;6404578;22;20713;-93
2021/03/11 04:08:08;;;;;;;8.97;8.07;;;6.50;99.90;;;;;;6406414;22;20383;-93
2021/03/11 04:10:38;;;;;;;13.20;7.87;;;6.50;99.90;;;;;;6377458;22;20424;-93
2021/03/11 04:13:06;;;;;;;10.70;8.33;;;6.50;99.90;;;;;;6406126;22;20429;-93
2021/03/11 04:15:35;;;;;;;11.90;8.27;;;6.50;99.90;;;;;;6405648;22;20449;-93
2021/03/11 04:18:03;;;;;;;8.93;7.47;;;6.50;99.90;;;;;;6366193;22;20478;-93
2021/03/11 04:20:30;;;;;;;8.30;7.47;;;6.50;99.90;;;;;;6374441;22;20410;-93
2021/03/11 04:22:59;;;;;;;9.47;7.53;;;6.50;99.90;;;;;;6374653;22;20518;-92
2021/03/11 04:25:35;;;;;;;8.87;7.90;;;6.50;99.90;;;;;;6373947;22;20804;-93
2021/03/11 04:28:02;;;;;;;10.13;8.20;;;6.50;99.90;;;;;;6374205;22;20522;-93
2021/03/11 04:30:31;;;;;;;11.57;9.40;;;6.50;99.90;;;;;;6373950;22;20429;-93
2021/03/11 04:32:58;;;;;;;10.40;7.70;;;6.60;99.90;;;;;;6374095;22;20422;-93
2021/03/11 04:35:28;;;;;;;11.70;9.63;;;6.60;99.90;;;;;;6373808;22;20482;-93
2021/03/11 04:37:55;;;;;;;12.23;9.87;;;6.60;99.90;;;;;;6373144;22;20571;-93
2021/03/11 04:40:24;;;;;;;11.50;10.30;;;6.60;99.90;;;;;;6345732;22;20400;-92
2021/03/11 04:42:51;;;;;;;13.30;9.00;;;6.60;99.90;;;;;;6373979;22;20449;-93
2021/03/11 04:45:19;;;;;;;10.07;8.73;;;6.60;99.90;;;;;;6374112;22;20450;-93
2021/03/11 04:47:48;;;;;;;11.07;9.93;;;6.70;99.90;;;;;;6374227;22;20507;-93
2021/03/11 04:50:15;;;;;;;9.50;8.33;;;6.70;99.90;;;;;;6373196;22;20525;-93
2021/03/11 04:52:42;;;;;;;15.43;11.80;;;6.70;99.90;;;;;;6373622;22;20422;-93
2021/03/11 04:55:13;;;;;;;11.50;9.17;;;6.70;99.90;;;;;;6346002;22;20421;-93
2021/03/11 04:57:41;;;;;;;13.23;11.70;;;6.70;99.90;;;;;;6375696;22;20566;-92
2021/03/11 05:00:15;;;;;;;12.73;10.87;;;6.70;99.90;;;;;;6375806;22;20461;-93
2021/03/11 05:02:46;;;;;;;8.10;7.00;;;6.70;99.90;;;;;;6374655;22;20416;-92
2021/03/11 05:05:20;;;;;;;8.97;6.83;;;6.70;99.90;;;;;;6375251;22;20429;-93
2021/03/11 05:07:49;;;;;;;11.80;10.03;;;6.80;99.90;;;;;;6375267;22;20455;-93
2021/03/11 05:10:18;;;;;;;8.87;7.70;;;6.80;99.90;;;;;;6375666;22;20821;-92
2021/03/11 05:12:47;;;;;;;13.40;9.67;;;6.80;99.90;;;;;;6375462;22;20525;-93
2021/03/11 05:15:14;;;;;;;9.10;8.17;;;6.90;99.90;;;;;;6375976;22;20766;-93
2021/03/11 05:17:41;;;;;;;13.43;10.77;;;6.90;99.90;;;;;;6381774;22;20429;-93
2021/03/11 05:20:09;;;;;;;8.67;6.50;;;6.90;99.90;;;;;;6407089;22;20421;-93
2021/03/11 05:22:36;;;;;;;8.17;6.60;;;7.00;99.90;;;;;;6407249;22;20445;-92
2021/03/11 05:25:03;;;;;;;7.60;6.60;;;7.00;99.90;;;;;;6407038;22;20425;-92
2021/03/11 05:27:30;;;;;;;6.77;5.80;;;7.00;99.90;;;;;;6407094;22;20968;-92
2021/03/11 05:29:58;;;;;;;6.83;6.13;;;7.10;99.90;;;;;;6406800;22;20421;-93
2021/03/11 05:32:30;;;;;;;7.97;4.70;;;7.10;99.90;;;;;;6407563;22;20854;-92
2021/03/11 05:34:58;;;;;;;7.80;6.20;;;7.10;99.90;;;;;;6409813;22;20421;-94
2021/03/11 05:37:31;;;;;;;6.20;5.60;;;7.10;99.90;;;;;;6410795;22;20426;-93
2021/03/11 05:45:36;;;;;;;6.80;6.00;;;7.10;99.90;;;;;;6410138;22;20401;-93
2021/03/11 05:53:35;;;;;;;6.47;5.40;;;7.00;99.90;;;;;;6409299;22;20402;-93
2021/03/11 05:56:06;;;;;;;6.87;6.17;;;7.00;99.90;;;;;;6410443;22;20496;-93
2021/03/11 05:58:37;;;;;;;8.43;5.80;;;7.00;99.90;;;;;;6410465;22;20418;-93
2021/03/11 06:01:06;;;;;;;6.60;5.93;;;7.00;99.90;;;;;;6380767;22;20432;-93
2021/03/11 06:06:17;;;;;;;6.60;5.33;;;7.00;99.90;;;;;;6404980;22;20408;-93
2021/03/11 06:08:45;;;;;;;5.90;5.30;;;7.00;99.90;;;;;;6407479;22;20494;-93
2021/03/11 06:11:15;;;;;;;6.73;5.80;;;7.00;99.90;;;;;;6407086;22;20402;-93
2021/03/11 06:13:44;;;;;;;6.43;5.50;;;7.00;99.90;;;;;;6406944;22;20418;-92
2021/03/11 06:16:16;;;;;;;7.30;6.10;;;7.00;99.90;;;;;;6406854;22;20424;-93
2021/03/11 06:18:43;;;;;;;5.17;4.67;;;7.10;99.90;;;;;;6406057;22;20575;-93
2021/03/11 06:21:16;;;;;;;6.17;5.57;;;7.10;99.90;;;;;;6406951;22;20516;-93
2021/03/11 06:23:43;;;;;;;7.30;5.80;;;7.10;99.90;;;;;;6406493;22;20727;-92
2021/03/11 06:26:12;;;;;;;6.30;4.90;;;7.10;99.90;;;;;;6406049;22;20441;-92
2021/03/11 06:28:57;;;;;;;6.40;5.47;;;7.10;99.90;;;;;;6378122;22;20880;-91
2021/03/11 06:31:26;;;;;;;6.33;5.37;;;7.20;99.90;;;;;;6407228;22;20424;-92
2021/03/11 06:33:54;;;;;;;7.67;5.47;;;7.20;99.90;;;;;;6406226;22;20417;-93
2021/03/11 06:36:22;;;;;;;5.93;5.30;;;7.20;99.90;;;;;;6406596;22;20459;-93
2021/03/11 06:41:43;;;;;;;5.83;5.23;;;7.20;99.90;;;;;;6409586;22;20386;-92
2021/03/11 06:44:19;;;;;;;6.30;5.70;;;7.30;99.90;;;;;;6408119;22;20441;-93
2021/03/11 06:56:52;;;;;;;7.00;6.33;;;7.40;99.90;;;;;;6412957;22;20439;-93
2021/03/11 06:59:46;;;;;;;6.80;6.10;;;7.40;99.90;;;;;;6411291;22;20417;-93
2021/03/11 07:02:19;;;;;;;7.10;6.10;;;7.40;99.90;;;;;;6405836;22;20445;-93
2021/03/11 07:04:56;;;;;;;5.40;4.90;;;7.50;99.90;;;;;;6405668;22;20698;-92
2021/03/11 07:07:35;;;;;;;6.50;5.60;;;7.50;99.90;;;;;;6377591;22;20466;-93
2021/03/11 07:10:27;;;;;;;11.27;9.40;;;7.50;99.90;;;;;;6404441;22;20398;-92
2021/03/11 07:13:04;;;;;;;8.40;6.77;;;7.40;99.90;;;;;;6403866;22;20524;-92
2021/03/11 07:15:40;;;;;;;8.77;6.63;;;7.60;99.90;;;;;;6402543;22;20425;-93
2021/03/11 07:18:25;;;;;;;7.90;6.60;;;7.60;99.90;;;;;;6404731;22;20411;-93
2021/03/11 07:21:01;;;;;;;6.97;6.27;;;7.60;99.90;;;;;;6404246;22;20474;-93
2021/03/11 07:23:43;;;;;;;6.50;5.70;;;7.60;99.90;;;;;;6405190;22;20834;-93
2021/03/11 07:26:16;;;;;;;6.70;6.07;;;7.70;99.90;;;;;;6376630;22;20417;-92
2021/03/11 07:29:18;;;;;;;6.10;5.57;;;7.70;99.90;;;;;;6404666;22;20412;-93
2021/03/11 07:31:55;;;;;;;6.33;5.67;;;7.70;99.90;;;;;;6405376;22;20413;-92
2021/03/11 07:34:30;;;;;;;6.27;5.23;;;7.80;99.90;;;;;;6403860;22;20413;-92
2021/03/11 07:37:09;;;;;;;6.43;5.83;;;7.90;99.90;;;;;;6377526;22;20420;-94
2021/03/11 07:40:14;;;;;;;5.20;4.73;;;7.90;99.90;;;;;;6405367;22;20413;-93
2021/03/11 07:43:15;;;;;;;8.03;6.20;;;7.90;99.90;;;;;;6405894;22;20917;-93
2021/03/11 07:46:02;;;;;;;5.97;5.37;;;7.90;99.90;;;;;;6404060;22;20418;-93
2021/03/11 07:48:43;;;;;;;5.33;4.83;;;8.00;99.90;;;;;;6404588;22;20700;-93
2021/03/11 07:51:24;;;;;;;5.70;5.10;;;8.00;99.90;;;;;;6403668;22;20392;-93
2021/03/11 07:56:53;;;;;;;6.63;5.43;;;8.10;99.90;;;;;;6403937;22;20401;-93
2021/03/11 07:59:26;;;;;;;5.53;4.50;;;8.20;99.90;;;;;;6405423;22;20881;-92
2021/03/11 08:02:05;;;;;;;5.10;4.60;;;8.30;99.90;;;;;;6404598;22;20416;-92
2021/03/11 08:04:42;;;;;;;4.40;4.00;;;8.40;99.90;;;;;;6404316;22;20416;-93
2021/03/11 08:07:22;;;;;;;4.80;4.37;;;8.60;99.90;;;;;;6404459;22;20413;-92
2021/03/11 08:09:53;;;;;;;5.70;4.50;;;8.80;99.90;;;;;;6403881;22;20464;-93
2021/03/11 08:12:38;;;;;;;4.90;4.40;;;9.00;99.90;;;;;;6404186;22;20437;-92
2021/03/11 08:32:07;;;;;;;4.60;4.20;;;8.80;99.90;;;;;;6418331;22;20477;-92
2021/03/11 08:34:47;;;;;;;5.60;4.77;;;8.90;99.90;;;;;;6404948;22;20958;-92
2021/03/11 08:40:34;;;;;;;4.17;3.73;;;9.00;99.90;;;;;;6436798;22;20416;-93
2021/03/11 08:44:03;;;;;;;5.20;4.33;;;9.10;99.90;;;;;;6438226;22;20756;-92
2021/03/11 08:50:24;;;;;;;4.70;4.20;;;9.30;99.90;;;;;;6428249;22;20814;-92
2021/03/11 08:53:00;;;;;;;5.60;4.20;;;9.40;99.90;;;;;;6438354;22;20449;-92
2021/03/11 08:59:03;;;;;;;6.10;3.53;;;9.40;99.90;;;;;;6417297;22;20410;-93
2021/03/11 09:09:45;;;;;;;5.17;3.10;;;9.40;99.90;;;;;;6406485;22;20365;-93
2021/03/11 09:15:47;;;;;;;6.70;3.20;;;9.10;99.90;;;;;;6390890;22;20405;-93
2021/03/11 09:35:35;;;;;;;7.50;2.80;;;8.60;99.90;;;;;;6421656;22;20183;-94
2021/03/11 09:40:48;;;;;;;5.03;2.87;;;8.70;99.90;;;;;;6437461;22;20416;-92
2021/03/11 09:43:21;;;;;;;8.07;3.30;;;8.80;99.90;;;;;;6438402;22;20734;-93
2021/03/11 09:45:56;;;;;;;7.73;3.50;;;8.80;99.90;;;;;;6438972;22;20425;-93
2021/03/11 09:48:28;;;;;;;6.90;2.87;;;8.80;99.90;;;;;;6440120;22;20423;-93
2021/03/11 10:04:06;;;;;;;9.77;3.70;;;8.80;99.90;;;;;;6389665;22;20504;-93
2021/03/11 10:07:10;;;;;;;10.43;4.00;;;8.90;99.90;;;;;;6434838;22;20554;-93
2021/03/11 10:10:18;;;;;;;14.93;3.77;;;9.10;99.90;;;;;;6381619;22;20412;-93
2021/03/11 10:13:06;;;;;;;8.63;3.70;;;9.50;83.90;;;;;;6433452;22;20461;-90
2021/03/11 10:18:36;;;;;;;17.47;5.27;;;10.60;1.00;;;;;;6404856;22;20461;-87
2021/03/11 10:21:15;;;;;;;11.47;4.37;;;10.90;1.00;;;;;;6405086;22;20477;-86
2021/03/11 10:23:52;;;;;;;12.60;4.67;;;11.20;1.00;;;;;;6376763;22;20449;-91
2021/03/11 13:08:16;;;;;;;14.43;4.83;;;13.20;1.00;;;;;;6412587;22;20551;-92
2021/03/11 13:14:02;;;;;;;12.40;4.53;;;11.60;1.00;;;;;;6433212;22;20400;-91
2021/03/11 13:16:40;;;;;;;19.63;5.90;;;11.00;1.00;;;;;;6438547;22;20519;-94
2021/03/11 13:19:09;;;;;;;11.03;4.87;;;11.00;1.00;;;;;;6413566;22;20419;-94
2021/03/11 13:21:38;;;;;;;12.17;4.67;;;11.00;1.00;;;;;;6441949;22;20399;-93
2021/03/11 13:24:08;;;;;;;14.57;5.17;;;11.10;1.00;;;;;;6439039;22;20466;-93
2021/03/11 13:26:35;;;;;;;10.17;4.90;;;11.00;1.00;;;;;;6439644;22;20409;-93
2021/03/11 13:29:02;;;;;;;13.77;3.70;;;11.10;1.00;;;;;;6439141;22;20424;-93
2021/03/11 13:34:13;;;;;;;11.20;3.87;;;11.00;1.00;;;;;;6436608;22;20403;-93
2021/03/11 13:36:40;;;;;;;14.83;4.80;;;11.10;1.00;;;;;;6439322;22;20443;-93
2021/03/11 13:39:08;;;;;;;9.00;3.57;;;11.70;1.00;;;;;;6438556;22;20453;-91
2021/03/11 13:41:38;;;;;;;16.13;5.00;;;12.20;1.00;;;;;;6438570;22;20491;-93
2021/03/11 13:44:08;;;;;;;13.23;5.03;;;12.10;1.00;;;;;;6438606;22;20772;-93
2021/03/11 13:46:35;;;;;;;13.13;3.93;;;12.00;1.00;;;;;;6438622;22;20884;-93
2021/03/11 13:49:03;;;;;;;9.33;3.50;;;12.00;1.00;;;;;;6439132;22;20431;-93
2021/03/11 13:51:30;;;;;;;18.43;4.37;;;12.50;1.00;;;;;;6437905;22;20427;-94
2021/03/11 13:53:59;;;;;;;13.50;6.10;;;12.70;1.00;;;;;;6437229;22;20421;-93
2021/03/11 13:56:36;;;;;;;11.50;4.30;;;12.50;1.00;;;;;;6439420;22;20745;-94
2021/03/11 13:59:04;;;;;;;11.43;4.27;;;12.20;1.00;;;;;;6437514;22;20519;-92
2021/03/11 14:01:40;;;;;;;15.13;3.83;;;12.00;1.00;;;;;;6439919;22;20904;-93
2021/03/11 14:04:07;;;;;;;10.63;3.03;;;11.90;1.00;;;;;;6435199;22;20500;-91
2021/03/11 14:06:38;;;;;;;7.73;3.30;;;12.10;1.00;;;;;;6438052;22;20421;-91
